LiveATC.Net - Listen to live air traffic control over the Internet!


ICAO: O61  IATA: O61   Airport: Cameron Park Airport
City: Cameron Park   State/Province: California
Country: United States   Continent: North America
KPVF METAR Weather: KPVF 141615Z AUTO 16008KT 10SM SCT120 28/09 A3015 RMK AO1
O61 ADS-B Flight Tracking  (ADSBExchange)
O61 Flight Activity (FlightAware)

O61 AWOS
Feed Status: UP   Listeners: 0
Listen in your browser - HTML5 player (in browser, HTML5)
Click here to listen with your own player (launches your MP3 player)
Archive Access: O61 AWOS
FacilityFrequency
Cameron Park AWOS120.000

O61 CTAF
Feed Status: UP   Listeners: 0
Listen in your browser - HTML5 player (in browser, HTML5)
Click here to listen with your own player (launches your MP3 player)
Archive Access: O61 CTAF
FacilityFrequency
Cameron Park CTAF123.050

NOTICE

Unauthorized use prohibited. See LiveATC.net Terms of Service


Airport/ARTCC Code
Frequency Search
(e.g., 124.400, 128.75)
Site-wide search
 


Browse Feeds
Top 50 Feeds
HF Oceanic Feeds
Coverage Map
Bad Weather Areas

LiveATC FAQ

Increase Coverage

Contact LiveATC.net
Press Inquiries

LiveATC on iPhone
LiveATC on Android

LiveATC Mobile
(Mobile browser)

ATC Audio Archives
Interesting Recordings

LiveATC Forums


Home Page
About LiveATC.net


Terms of Use
Privacy Policy

AIRMETs/SIGMETs

FAA Airport Status
NAS Status
Arrival Demand


Server Software By:
Icecast.org
Liquidsoap